Latest Weather Observations for Thredbo Top Station

IDN60901

Issued at 7:31 am EDT Monday 18 November 2019 (issued every 10 minutes, with the page automatically refreshed every 10 minutes)

About weather observations | Map of Canberra area stations | Latest observations for Canberra area | Other Formats
Station Details ID: 071032 Name: THREDBO AWS Lat: -36.49 Lon: 148.29 Height: 1957.0 m
Data from the previous 72 hours. | See also: Recent months at Thredbo Top Station
Date/Time
EDT
Temp
°C
App
Temp
°C
Dew
Point
°C
Rel
Hum
%
Delta-T
°C
Wind Press
QNH
hPa
Press
MSL
hPa
Rain since
9am
mm
Dir  Spd
km/h
Gust
km/h
Spd
kts
Gust
kts
18/07:30am 6.0 -6.4 -7.9 36 5.0 WSW 50 63 27 34 1018.3 1013.2 0.0
18/07:00am 5.1 -7.3 -7.7 39 4.6 WSW 50 65 27 35 1017.8 1012.7 0.0
18/06:30am 3.2 -9.5 -3.4 62 2.6 WSW 54 63 29 34 1017.2 1012.1 0.0
18/06:00am 2.9 -9.5 -4.3 59 2.7 W 52 65 28 35 1016.6 1011.4 0.0
18/05:30am 3.3 -9.8 -6.9 47 3.8 W 54 67 29 36 1016.4 1011.2 0.0
18/05:00am 3.5 -10.7 -4.9 54 3.2 W 61 72 33 39 1015.4 1010.2 0.0
18/04:30am 3.6 -11.1 -2.8 63 2.6 W 65 74 35 40 1015.1 1009.9 0.0
18/04:07am 3.6 -9.5 -2.1 66 2.3 W 57 78 31 42 1015.0 1009.8 0.0
18/04:00am 3.4 -8.8 -2.1 67 2.2 W 52 69 28 37 1015.4 1010.2 0.0
18/03:39am 3.3 -7.6 -1.6 70 2.0 W 46 65 25 35 1016.1 1010.9 0.0
18/03:30am 3.1 -8.2 -1.4 72 1.9 W 48 63 26 34 1016.6 1011.4 0.0
18/03:04am 3.2 -5.9 -0.6 76 1.6 W 37 56 20 30 1017.0 1011.8 0.0
18/03:00am 3.0 -6.1 -0.8 76 1.6 W 37 52 20 28 1017.6 1012.4 0.0
18/02:30am 3.5 -6.8 -0.9 73 1.8 W 43 54 23 29 1017.8 1012.7 0.0
18/02:00am 4.0 -6.0 -1.4 68 2.2 W 41 48 22 26 1018.0 1012.9 0.0
18/01:30am 3.8 -4.9 -0.4 74 1.8 W 35 41 19 22 1019.0 1013.9 0.0
18/01:00am 3.5 -3.8 -0.3 76 1.6 W 28 33 15 18 1019.9 1014.8 0.0
18/12:30am 3.8 -2.4 0.0 76 1.6 W 22 28 12 15 1020.4 1015.3 0.0
18/12:00am 3.3 -2.3 0.9 84 1.0 NW 20 28 11 15 1020.6 1015.6 0.0
 
Date/Time
EDT
Temp
°C
App
Temp
°C
Dew
Point
°C
Rel
Hum
%
Delta-T
°C
Wind Press
QNH
hPa
Press
MSL
hPa
Rain since
9am
mm
Dir  Spd
km/h
Gust
km/h
Spd
kts
Gust
kts
17/11:30pm 0.1 -5.0 -1.8 87 0.8 NNW 15 19 8 10 1021.1 1016.1 0.0
17/11:00pm -0.4 -5.9 -2.3 87 0.7 NNW 17 19 9 10 1021.4 1016.5 0.0
17/10:30pm 0.8 -5.0 -1.8 83 1.1 NNW 19 19 10 10 1021.6 1016.6 0.0
17/10:00pm 2.5 -2.2 -1.8 73 1.7 NNW 13 15 7 8 1021.8 1016.8 0.0
17/09:30pm 5.3 -1.4 -0.9 64 2.6 W 24 30 13 16 1021.2 1016.2 0.0
17/09:00pm 5.0 -2.1 -1.4 63 2.7 W 26 33 14 18 1021.0 1016.0 0.0
17/08:30pm 5.4 -1.8 -2.0 59 3.1 W 26 30 14 16 1020.7 1015.7 0.0
17/08:00pm 5.1 -1.2 -1.3 63 2.7 W 22 30 12 16 1020.8 1015.8 0.0
17/07:30pm 5.9 0.5 -1.5 59 3.1 W 17 22 9 12 1020.8 1015.8 0.0
17/07:00pm 7.2 1.3 -2.5 50 4.0 W 19 24 10 13 1020.5 1015.5 0.0
17/06:30pm 7.5 2.8 -2.0 51 4.0 W 13 20 7 11 1020.2 1015.2 0.0
17/06:00pm 7.3 3.1 -1.1 55 3.6 W 11 24 6 13 1019.9 1014.8 0.0
17/05:30pm 7.2 3.0 -1.2 55 3.6 W 11 19 6 10 1019.9 1014.8 0.0
17/05:00pm 8.3 3.3 -1.2 51 4.1 WNW 15 26 8 14 1019.7 1014.7 0.0
17/04:30pm 8.1 3.1 -1.4 51 4.1 SW 15 30 8 16 1019.9 1014.8 0.0
17/04:00pm 9.4 4.5 -0.8 49 4.5 WSW 15 26 8 14 1019.7 1014.7 0.0
17/03:30pm 9.5 4.6 -3.7 39 5.5 WSW 13 26 7 14 1019.6 1014.6 0.0
17/03:00pm 9.4 4.1 -3.8 39 5.5 WSW 15 30 8 16 1019.4 1014.3 0.0
17/02:30pm 8.3 2.8 -1.8 49 4.3 W 17 30 9 16 1019.4 1014.3 0.0
17/02:00pm 9.0 3.3 -1.1 49 4.4 W 19 30 10 16 1019.4 1014.3 0.0
17/01:30pm 8.0 2.9 -2.0 49 4.3 W 15 24 8 13 1019.6 1014.6 0.0
17/01:00pm 7.3 1.9 -1.6 53 3.8 WSW 17 32 9 17 1019.7 1014.7 0.0
17/12:30pm 7.1 2.3 0.3 62 3.0 WSW 15 26 8 14 1019.6 1014.6 0.0
17/12:00pm 6.6 0.5 -3.6 48 4.1 WSW 19 28 10 15 1019.6 1014.6 0.0
17/11:30am 7.2 1.5 -3.9 45 4.5 WSW 17 28 9 15 1019.3 1014.2 0.0
17/11:00am 7.0 1.3 -12.2 24 6.3 W 13 26 7 14 1019.1 1014.1 0.0
17/10:30am 6.6 1.0 -11.0 27 5.9 WSW 13 20 7 11 1018.9 1013.8 0.0
17/10:00am 6.3 0.7 -11.3 27 5.9 SSW 13 22 7 12 1018.8 1013.7 0.0
17/09:30am 5.8 2.1 -4.6 47 4.1 ESE 6 13 3 7 1018.7 1013.6 0.0
17/09:00am 5.2 2.2 1.1 75 1.8 ESE 6 9 3 5 1018.5 1013.4 0.0
17/08:30am 4.4 0.4 -7.7 41 4.3 SE 6 11 3 6 1018.3 1013.2 0.0
17/08:00am 4.5 -0.8 -12.4 28 5.6 W 11 19 6 10 1017.9 1012.8 0.0
17/07:30am 3.7 -0.3 -2.0 66 2.3 W 9 19 5 10 1017.8 1012.7 0.0
17/07:00am 2.0 -1.0 -2.1 74 1.6 SSW 4 13 2 7 1017.7 1012.6 0.0
17/06:30am 0.8 -4.9 -3.8 71 1.8 WSW 17 22 9 12 1017.1 1011.9 0.0
17/06:00am 0.9 -4.9 -4.9 65 2.2 W 17 22 9 12 1016.7 1011.5 0.0
17/05:30am 1.1 -5.4 -6.0 59 2.6 W 20 24 11 13 1016.4 1011.2 0.0
17/05:00am 0.6 -6.0 -9.4 47 3.3 W 19 22 10 12 1016.0 1010.8 0.0
17/04:30am 0.7 -5.7 -12.3 37 4.0 W 17 20 9 11 1016.2 1011.0 0.0
17/04:00am 1.6 -4.8 -11.8 36 4.3 W 17 20 9 11 1016.1 1010.9 0.0
17/03:30am 2.0 -4.5 -6.1 55 3.0 W 20 26 11 14 1016.8 1011.7 0.0
17/03:00am 1.6 -5.5 -4.1 66 2.2 W 24 30 13 16 1016.8 1011.7 0.0
17/02:30am 1.8 -4.3 -4.3 64 2.4 W 19 24 10 13 1017.3 1012.2 0.0
17/02:00am 2.1 -4.8 -2.8 70 1.9 W 24 32 13 17 1017.0 1011.8 0.0
17/01:30am 2.1 -4.5 -3.0 69 2.0 WNW 22 28 12 15 1017.4 1012.3 0.0
17/01:00am 2.2 -5.2 -3.7 65 2.4 W 26 32 14 17 1018.0 1012.9 0.0
17/12:30am 2.4 -4.3 -4.3 61 2.7 W 22 26 12 14 1018.2 1013.1 0.0
17/12:00am 3.3 -2.4 -7.2 46 3.9 W 15 19 8 10 1018.8 1013.7 0.0
 
Date/Time
EDT
Temp
°C
App
Temp
°C
Dew
Point
°C
Rel
Hum
%
Delta-T
°C
Wind Press
QNH
hPa
Press
MSL
hPa
Rain since
9am
mm
Dir  Spd
km/h
Gust
km/h
Spd
kts
Gust
kts
16/11:30pm 3.1 -2.8 -5.3 54 3.3 WNW 17 20 9 11 1018.3 1013.2 0.0
16/11:00pm 2.8 -4.4 -4.9 57 3.0 WNW 24 26 13 14 1018.3 1013.2 0.0
16/10:30pm 4.0 -2.6 -9.7 36 4.8 WNW 19 22 10 12 1018.5 1013.4 0.0
16/10:00pm 2.8 -4.1 -5.8 53 3.3 NW 22 24 12 13 1018.0 1012.9 0.0
16/09:30pm 1.5 -5.0 -5.6 59 2.7 NNW 20 26 11 14 1017.8 1012.7 0.0
16/09:00pm 2.1 -4.0 -3.8 65 2.4 NNW 19 24 10 13 1017.7 1012.6 0.0
16/08:30pm 2.7 -5.1 -4.1 61 2.6 NNW 28 33 15 18 1017.9 1012.8 0.0
16/08:00pm 3.3 -4.5 -4.2 58 2.9 NW 28 32 15 17 1018.0 1012.9 0.0
16/07:30pm 4.4 -2.0 -5.1 50 3.6 N 20 28 11 15 1018.3 1013.2 0.0
16/07:00pm 5.0 -1.2 -5.1 48 3.9 NW 19 28 10 15 1018.5 1013.4 0.0
16/06:30pm 5.7 -3.0 -5.3 45 4.2 WNW 32 37 17 20 1018.0 1012.9 0.0
16/06:00pm 6.4 -2.7 -3.8 48 4.1 W 35 44 19 24 1017.7 1012.6 0.0
16/05:30pm 7.2 -2.8 -2.0 52 3.9 W 41 57 22 31 1016.8 1011.7 0.0
16/05:00pm 7.2 -2.1 -2.0 52 3.9 W 37 48 20 26 1017.0 1011.8 0.0
16/04:34pm 8.0 -0.5 -1.5 51 4.1 W 33 52 18 28 1016.7 1011.5 0.0
16/04:30pm 8.3 0.1 -1.2 51 4.1 W 32 43 17 23 1017.2 1012.1 0.0
16/04:00pm 9.4 2.6 -1.6 46 4.8 W 24 37 13 20 1017.2 1012.1 0.0
16/03:30pm 7.9 0.2 -2.7 47 4.4 WNW 28 43 15 23 1017.3 1012.2 0.0
16/03:00pm 8.5 2.4 -2.4 46 4.6 WNW 20 35 11 19 1017.3 1012.2 0.0
16/02:30pm 9.0 3.2 -0.1 53 4.1 W 20 37 11 20 1017.6 1012.4 0.0
16/02:00pm 7.9 2.1 -0.3 56 3.6 WNW 20 33 11 18 1017.8 1012.7 0.0
16/01:30pm 9.4 4.2 -0.2 51 4.3 W 17 32 9 17 1017.8 1012.7 0.0
16/01:00pm 9.0 3.4 -2.6 44 4.9 WSW 17 33 9 18 1017.9 1012.8 0.0
16/12:30pm 8.3 2.4 -2.3 47 4.5 W 19 33 10 18 1017.9 1012.8 0.0
16/12:00pm 8.2 2.0 -4.6 40 5.1 W 19 30 10 16 1017.9 1012.8 0.0
16/11:30am 8.5 1.8 -4.6 39 5.3 WSW 22 33 12 18 1018.0 1012.9 0.0
16/11:00am 7.2 -0.7 -8.4 32 5.7 WSW 26 35 14 19 1017.6 1012.4 0.0
16/10:30am 7.8 0.1 -11.5 24 6.6 SW 24 35 13 19 1017.4 1012.3 0.0
16/10:00am 7.3 -0.2 -13.5 21 6.7 WSW 22 37 12 20 1017.2 1012.1 0.0
16/09:30am 7.0 -1.1 -18.6 14 7.7 WSW 24 39 13 21 1016.8 1011.7 0.0
16/09:00am 5.9 -0.7 -15.9 19 6.8 W 17 26 9 14 1016.6 1011.4 0.0
16/08:30am 5.1 -2.6 -11.9 28 5.8 W 24 32 13 17 1016.1 1010.9 0.0
16/08:00am 4.2 -4.2 -10.6 33 5.1 W 28 39 15 21 1015.5 1010.3 0.0
16/07:30am 3.0 -6.0 -6.6 49 3.6 W 33 44 18 24 1015.0 1009.8 0.0
16/07:00am 1.2 -8.6 -2.9 74 1.7 W 39 52 21 28 1014.5 1009.3 0.0
16/06:30am 0.1 -9.3 -0.3 97 0.2 W 39 56 21 30 - - 0.0
16/06:00am 0.1 -9.7 -0.3 97 0.2 W 41 56 22 30 - - 0.0
16/05:30am 0.5 -11.0 -0.2 95 0.3 WSW 50 61 27 33 - - 0.0
16/05:00am 0.6 -10.9 -0.3 94 0.4 WSW 50 63 27 34 - - 0.0
16/04:30am 1.1 -9.5 0.7 97 0.2 W 46 59 25 32 - - 0.0
16/04:00am 1.2 -9.4 0.8 97 0.2 W 46 59 25 32 - - 0.0
16/03:30am 1.6 -9.0 0.6 93 0.4 W 46 61 25 33 - - 0.0
16/03:00am 1.6 -8.4 0.7 94 0.4 W 43 54 23 29 - - 0.0
16/02:30am 1.3 -7.3 0.4 94 0.4 W 35 48 19 26 - - 0.0
16/02:05am 1.6 -6.5 -0.2 88 0.8 W 32 50 17 27 1014.3 1009.0 0.0
16/02:00am 1.4 -6.2 0.4 93 0.4 W 30 43 16 23 1014.7 1009.4 0.0
16/01:34am 1.9 -8.3 0.9 93 0.4 W 44 63 24 34 - - 0.0
16/01:30am 1.9 -8.3 1.0 94 0.4 W 44 56 24 30 1014.4 1009.2 0.0
16/01:00am 2.4 -8.5 1.1 91 0.6 W 48 59 26 32 1014.3 1009.0 0.0
16/12:30am 2.8 -7.4 1.2 89 0.7 W 44 69 24 37 1014.5 1009.3 0.0
16/12:07am 3.0 -6.4 2.3 95 0.3 W 41 59 22 32 1014.7 1009.4 0.0
16/12:00am 3.0 -6.8 2.1 94 0.4 W 43 56 23 30 1014.8 1009.5 0.0
 
Date/Time
EDT
Temp
°C
App
Temp
°C
Dew
Point
°C
Rel
Hum
%
Delta-T
°C
Wind Press
QNH
hPa
Press
MSL
hPa
Rain since
9am
mm
Dir  Spd
km/h
Gust
km/h
Spd
kts
Gust
kts
15/11:35pm 3.1 -5.6 2.2 94 0.4 W 37 56 20 30 1014.8 1009.5 0.0
15/11:30pm 3.2 -5.5 2.2 93 0.5 W 37 48 20 26 1014.9 1009.7 0.0
15/11:05pm 3.2 -5.5 1.9 91 0.6 W 37 56 20 30 1014.9 1009.7 0.0
15/11:00pm 3.2 -6.3 2.0 92 0.5 W 41 56 22 30 1015.0 1009.8 0.0
15/10:30pm 3.2 -6.7 1.4 88 0.8 W 43 56 23 30 1014.7 1009.4 0.0
15/10:00pm 3.6 -3.3 2.6 93 0.5 W 28 46 15 25 1015.1 1009.9 0.0
15/09:36pm 3.7 -4.0 2.4 91 0.6 W 32 50 17 27 1014.9 1009.7 0.0
15/09:30pm 3.6 -4.7 2.4 92 0.5 W 35 52 19 28 1014.7 1009.4 0.0
15/09:00pm 4.0 -5.4 2.5 90 0.7 W 41 59 22 32 - - 0.0
15/08:31pm 4.4 -4.9 2.9 90 0.7 WSW 41 61 22 33 - - 0.0
15/08:30pm 4.4 -4.9 3.1 91 0.6 WSW 41 52 22 28 - - 0.0
15/08:11pm 4.5 -3.1 3.0 90 0.7 W 32 50 17 27 - - 0.0
15/08:00pm 4.6 -2.6 3.1 90 0.7 W 30 44 16 24 - - 0.0
15/07:48pm 4.8 -3.0 3.0 88 0.8 W 33 52 18 28 - - 0.0
15/07:30pm 4.9 -2.9 2.8 86 1.0 W 33 48 18 26 - - 0.0
15/07:00pm 5.1 -2.2 2.6 84 1.2 W 30 44 16 24 - - 0.0
15/06:30pm 5.5 -3.6 2.0 78 1.6 W 39 50 21 27 - - 0.0
15/06:00pm 5.9 -3.4 0.9 70 2.2 W 39 61 21 33 - - 0.0
15/05:47pm 6.0 -2.5 0.6 68 2.4 W 35 56 19 30 - - 0.0
15/05:30pm 7.0 -2.2 1.1 66 2.7 W 39 54 21 29 - - 0.0
15/05:21pm 7.2 -1.7 0.6 63 3.0 W 37 56 20 30 - - 0.0
15/05:00pm 7.4 -2.3 0.4 61 3.1 W 41 57 22 31 - - 0.0
15/04:37pm 7.2 -2.7 1.7 68 2.5 W 43 61 23 33 - - 0.0
15/04:30pm 7.3 -2.7 2.0 69 2.5 W 44 59 24 32 - - 0.0
15/04:07pm 7.3 -1.8 2.0 69 2.5 W 39 59 21 32 - - 0.0
15/04:00pm 7.7 -2.2 2.8 71 2.3 W 44 59 24 32 - - 0.0
15/03:30pm 8.2 -2.8 2.9 69 2.5 W 50 76 27 41 - - 0.0
15/03:00pm 7.5 -4.5 1.6 66 2.7 W 54 72 29 39 - - 0.0
15/02:31pm 6.8 -4.9 3.2 78 1.7 W 54 72 29 39 - - 0.0
15/02:30pm 6.7 -5.0 3.1 78 1.7 W 54 67 29 36 - - 0.0
15/02:00pm 6.5 -4.8 3.5 81 1.4 W 52 70 28 38 - - 0.0
15/01:30pm 7.6 -2.9 3.6 76 1.9 W 48 69 26 37 - - 0.0
15/01:02pm 7.3 -4.1 2.6 72 2.2 W 52 70 28 38 - - 0.0
15/01:00pm 8.0 -3.4 2.9 70 2.4 W 52 69 28 37 - - 0.0
15/12:31pm 6.6 -5.3 2.3 74 2.0 W 54 72 29 39 - - 0.0
15/12:30pm 6.8 -4.6 3.1 77 1.8 W 52 67 28 36 - - 0.0
15/12:09pm 7.1 -5.2 3.0 75 1.9 W 57 76 31 41 - - 0.0
15/12:00pm 6.0 -7.5 2.8 80 1.5 W 63 80 34 43 - - 0.0
15/11:30am 5.7 -8.1 3.4 85 1.1 W 65 85 35 46 - - 0.0
15/11:24am 6.2 -7.5 3.9 85 1.1 W 65 85 35 46 - - 0.0
15/11:23am 6.1 -8.0 3.6 84 1.2 W 67 85 36 46 - - 0.0
15/11:09am 5.8 -9.9 2.4 79 1.6 W 74 93 40 50 - - 0.0
15/11:00am 5.4 -10.5 3.3 86 1.0 W 76 91 41 49 - - 0.0
15/10:30am 4.8 -11.1 3.0 88 0.8 W 76 95 41 51 - - 0.0
15/10:00am 4.4 -11.2 2.9 90 0.7 W 74 91 40 49 - - 0.0
15/09:30am 4.4 -12.7 2.9 90 0.7 W 82 102 44 55 - - 0.0
15/09:09am 3.8 -12.5 3.2 96 0.3 W 78 96 42 52 - - 0.0
15/09:00am 4.2 -12.0 3.5 95 0.3 W 78 91 42 49 - - 0.0
15/08:30am 3.8 -10.4 3.2 96 0.3 W 67 87 36 47 - - 0.0
15/08:04am 3.8 -8.8 3.4 97 0.2 W 59 78 32 42 - - 0.0
15/08:00am 4.0 -9.0 3.4 96 0.3 W 61 78 33 42 - - 0.0

Latest Capital City Observations: Canberra | Sydney | Melbourne | Brisbane | Adelaide | Perth | Hobart | Darwin

Other formats

Comma delimited format used in spreadsheet applications
http://www.bom.gov.au/fwo/IDN60903/IDN60903.95909.axf

JavaScript Object Notation format (JSON) in row-major order
http://www.bom.gov.au/fwo/IDN60903/IDN60903.95909.json

Data quality

Most of these data are generated automatically and are frequently updated. Quality checks on data are not normally performed. It is possible for incorrect values to appear. Refer to information at About Latest Weather Observations and please check the disclaimer before using these data.